sensor_id;sensor_type;location;lat;lon;timestamp;pressure;altitude;pressure_sealevel;temperature;humidity
71107;BME280;58763;47.982;11.516;2024-03-23T00:53:55;93614.28;;;9.34;71.38
71107;BME280;58763;47.982;11.516;2024-03-23T00:56:21;93609.78;;;9.48;70.25
71107;BME280;58763;47.982;11.516;2024-03-23T00:58:46;93605.75;;;9.64;68.65
71107;BME280;58763;47.982;11.516;2024-03-23T01:01:12;93601.38;;;9.68;68.35
71107;BME280;58763;47.982;11.516;2024-03-23T01:03:37;93598.38;;;9.69;69.24
71107;BME280;58763;47.982;11.516;2024-03-23T01:06:03;93596.78;;;9.50;70.79
71107;BME280;58763;47.982;11.516;2024-03-23T01:08:29;93604.25;;;9.39;71.56
71107;BME280;58763;47.982;11.516;2024-03-23T01:10:59;93591.19;;;9.28;72.67
71107;BME280;58763;47.982;11.516;2024-03-23T01:13:26;93584.09;;;9.13;72.97
71107;BME280;58763;47.982;11.516;2024-03-23T01:15:52;93585.56;;;9.05;73.71
71107;BME280;58763;47.982;11.516;2024-03-23T01:18:19;93585.75;;;8.90;74.51
71107;BME280;58763;47.982;11.516;2024-03-23T01:20:45;93575.91;;;8.81;74.85
71107;BME280;58763;47.982;11.516;2024-03-23T01:23:11;93577.78;;;8.80;75.05
71107;BME280;58763;47.982;11.516;2024-03-23T01:25:37;93580.28;;;8.77;75.32
71107;BME280;58763;47.982;11.516;2024-03-23T01:28:03;93580.56;;;8.75;74.97
71107;BME280;58763;47.982;11.516;2024-03-23T01:30:29;93573.00;;;8.77;74.96
71107;BME280;58763;47.982;11.516;2024-03-23T01:32:56;93567.31;;;8.79;74.34
71107;BME280;58763;47.982;11.516;2024-03-23T01:35:21;93565.50;;;8.74;73.89
71107;BME280;58763;47.982;11.516;2024-03-23T01:37:47;93575.81;;;8.67;74.50
71107;BME280;58763;47.982;11.516;2024-03-23T01:40:13;93565.53;;;8.69;74.30
71107;BME280;58763;47.982;11.516;2024-03-23T01:42:41;93570.44;;;8.67;73.83
71107;BME280;58763;47.982;11.516;2024-03-23T01:45:08;93567.69;;;8.72;73.77
71107;BME280;58763;47.982;11.516;2024-03-23T01:47:34;93570.22;;;8.82;71.93
71107;BME280;58763;47.982;11.516;2024-03-23T01:50:00;93566.03;;;8.95;70.84
71107;BME280;58763;47.982;11.516;2024-03-23T01:52:26;93561.38;;;9.00;70.69
71107;BME280;58763;47.982;11.516;2024-03-23T01:54:55;93561.72;;;9.13;70.61
71107;BME280;58763;47.982;11.516;2024-03-23T01:57:21;93556.25;;;9.18;69.54
71107;BME280;58763;47.982;11.516;2024-03-23T01:59:47;93553.84;;;9.35;68.40
71107;BME280;58763;47.982;11.516;2024-03-23T02:02:13;93547.28;;;9.41;68.95
71107;BME280;58763;47.982;11.516;2024-03-23T02:04:39;93544.16;;;9.34;70.14
71107;BME280;58763;47.982;11.516;2024-03-23T02:07:06;93545.97;;;9.20;70.50
71107;BME280;58763;47.982;11.516;2024-03-23T02:09:34;93544.75;;;9.12;71.08
71107;BME280;58763;47.982;11.516;2024-03-23T02:12:02;93544.81;;;9.07;71.70
71107;BME280;58763;47.982;11.516;2024-03-23T02:14:28;93534.84;;;9.08;71.65
71107;BME280;58763;47.982;11.516;2024-03-23T02:16:54;93537.69;;;8.97;72.50
71107;BME280;58763;47.982;11.516;2024-03-23T02:19:19;93538.91;;;8.86;72.79
71107;BME280;58763;47.982;11.516;2024-03-23T02:21:45;93543.81;;;8.84;72.83
71107;BME280;58763;47.982;11.516;2024-03-23T02:24:12;93529.78;;;8.82;72.51
71107;BME280;58763;47.982;11.516;2024-03-23T02:26:38;93525.06;;;8.74;73.01
71107;BME280;58763;47.982;11.516;2024-03-23T02:29:04;93530.88;;;8.63;73.56
71107;BME280;58763;47.982;11.516;2024-03-23T02:31:29;93527.72;;;8.56;74.06
71107;BME280;58763;47.982;11.516;2024-03-23T02:33:55;93520.56;;;8.46;74.83
71107;BME280;58763;47.982;11.516;2024-03-23T02:36:20;93523.88;;;8.38;75.36
71107;BME280;58763;47.982;11.516;2024-03-23T02:38:46;93518.03;;;8.31;75.96
71107;BME280;58763;47.982;11.516;2024-03-23T02:41:12;93512.31;;;8.14;76.66
71107;BME280;58763;47.982;11.516;2024-03-23T02:43:39;93507.00;;;8.04;77.28
71107;BME280;58763;47.982;11.516;2024-03-23T02:46:04;93511.84;;;8.07;76.75
71107;BME280;58763;47.982;11.516;2024-03-23T02:48:30;93501.78;;;8.12;76.91
71107;BME280;58763;47.982;11.516;2024-03-23T02:50:56;93497.78;;;8.10;77.13
71107;BME280;58763;47.982;11.516;2024-03-23T02:53:21;93496.19;;;8.09;77.17
71107;BME280;58763;47.982;11.516;2024-03-23T02:55:47;93495.09;;;8.10;77.32
71107;BME280;58763;47.982;11.516;2024-03-23T02:58:13;93489.84;;;8.00;77.59
71107;BME280;58763;47.982;11.516;2024-03-23T03:00:38;93488.72;;;8.01;77.07
71107;BME280;58763;47.982;11.516;2024-03-23T03:03:04;93488.72;;;8.01;76.80
71107;BME280;58763;47.982;11.516;2024-03-23T03:05:30;93479.06;;;8.00;77.19
71107;BME280;58763;47.982;11.516;2024-03-23T03:07:55;93485.03;;;7.97;77.16
71107;BME280;58763;47.982;11.516;2024-03-23T03:10:20;93496.59;;;7.97;76.57
71107;BME280;58763;47.982;11.516;2024-03-23T03:12:46;93486.34;;;7.99;76.14
71107;BME280;58763;47.982;11.516;2024-03-23T03:15:12;93480.38;;;8.02;76.38
71107;BME280;58763;47.982;11.516;2024-03-23T03:17:38;93472.19;;;7.89;76.93
71107;BME280;58763;47.982;11.516;2024-03-23T03:20:04;93473.97;;;7.75;77.88
71107;BME280;58763;47.982;11.516;2024-03-23T03:22:30;93466.91;;;7.79;77.86
71107;BME280;58763;47.982;11.516;2024-03-23T03:24:56;93465.31;;;7.78;77.82
71107;BME280;58763;47.982;11.516;2024-03-23T03:27:21;93471.88;;;7.66;77.60
71107;BME280;58763;47.982;11.516;2024-03-23T03:29:48;93460.09;;;7.62;77.87
71107;BME280;58763;47.982;11.516;2024-03-23T03:32:13;93463.38;;;7.54;78.40
71107;BME280;58763;47.982;11.516;2024-03-23T03:34:39;93456.50;;;7.43;78.59
71107;BME280;58763;47.982;11.516;2024-03-23T03:37:05;93447.88;;;7.46;78.86
71107;BME280;58763;47.982;11.516;2024-03-23T03:39:30;93452.28;;;7.37;78.78
71107;BME280;58763;47.982;11.516;2024-03-23T03:41:58;93441.44;;;7.42;78.41
71107;BME280;58763;47.982;11.516;2024-03-23T03:44:26;93441.53;;;7.37;78.35
71107;BME280;58763;47.982;11.516;2024-03-23T03:46:51;93436.97;;;7.33;78.32
71107;BME280;58763;47.982;11.516;2024-03-23T03:49:17;93444.84;;;7.24;78.66
71107;BME280;58763;47.982;11.516;2024-03-23T03:51:42;93426.47;;;7.03;79.40
71107;BME280;58763;47.982;11.516;2024-03-23T03:54:07;93433.75;;;7.02;79.67
71107;BME280;58763;47.982;11.516;2024-03-23T03:56:33;93421.94;;;6.98;80.29
71107;BME280;58763;47.982;11.516;2024-03-23T03:58:58;93421.22;;;6.92;80.46
71107;BME280;58763;47.982;11.516;2024-03-23T04:01:24;93423.69;;;6.84;81.23
71107;BME280;58763;47.982;11.516;2024-03-23T04:03:50;93428.97;;;6.94;80.54
71107;BME280;58763;47.982;11.516;2024-03-23T04:06:19;93418.72;;;7.01;79.85
71107;BME280;58763;47.982;11.516;2024-03-23T04:08:45;93417.19;;;6.90;80.73
71107;BME280;58763;47.982;11.516;2024-03-23T04:11:11;93414.53;;;6.85;81.36
71107;BME280;58763;47.982;11.516;2024-03-23T04:13:36;93411.91;;;6.80;81.42
71107;BME280;58763;47.982;11.516;2024-03-23T04:16:02;93405.16;;;6.82;80.88
71107;BME280;58763;47.982;11.516;2024-03-23T04:18:27;93401.91;;;6.85;80.38
71107;BME280;58763;47.982;11.516;2024-03-23T04:20:53;93394.03;;;6.94;80.28
71107;BME280;58763;47.982;11.516;2024-03-23T04:23:19;93395.41;;;6.91;80.08
71107;BME280;58763;47.982;11.516;2024-03-23T04:25:45;93392.47;;;6.93;79.84
71107;BME280;58763;47.982;11.516;2024-03-23T04:28:10;93386.59;;;6.86;79.87
71107;BME280;58763;47.982;11.516;2024-03-23T04:30:36;93393.09;;;6.80;80.07
71107;BME280;58763;47.982;11.516;2024-03-23T04:33:02;93387.72;;;6.80;79.33
71107;BME280;58763;47.982;11.516;2024-03-23T04:35:28;93374.53;;;6.83;78.77
71107;BME280;58763;47.982;11.516;2024-03-23T04:37:53;93371.03;;;6.83;78.43
71107;BME280;58763;47.982;11.516;2024-03-23T04:40:19;93365.16;;;6.81;78.93
71107;BME280;58763;47.982;11.516;2024-03-23T04:42:45;93363.72;;;6.88;78.53
71107;BME280;58763;47.982;11.516;2024-03-23T04:45:10;93359.19;;;6.84;79.09
71107;BME280;58763;47.982;11.516;2024-03-23T04:47:37;93355.44;;;6.85;78.52
71107;BME280;58763;47.982;11.516;2024-03-23T04:50:04;93348.97;;;6.86;77.88
71107;BME280;58763;47.982;11.516;2024-03-23T04:52:30;93351.13;;;6.84;77.61
71107;BME280;58763;47.982;11.516;2024-03-23T04:54:55;93350.75;;;6.95;77.11
71107;BME280;58763;47.982;11.516;2024-03-23T04:57:21;93346.19;;;6.96;77.51
71107;BME280;58763;47.982;11.516;2024-03-23T04:59:47;93337.50;;;7.04;76.79
71107;BME280;58763;47.982;11.516;2024-03-23T05:02:13;93333.72;;;7.05;76.44
71107;BME280;58763;47.982;11.516;2024-03-23T05:04:39;93320.66;;;6.93;76.83
71107;BME280;58763;47.982;11.516;2024-03-23T05:07:06;93323.66;;;6.92;76.11
71107;BME280;58763;47.982;11.516;2024-03-23T05:09:32;93314.53;;;6.93;76.01
71107;BME280;58763;47.982;11.516;2024-03-23T05:11:59;93323.34;;;6.93;76.87
71107;BME280;58763;47.982;11.516;2024-03-23T05:14:26;93308.69;;;6.86;76.49
71107;BME280;58763;47.982;11.516;2024-03-23T05:16:52;93307.28;;;6.88;76.03
71107;BME280;58763;47.982;11.516;2024-03-23T05:19:18;93301.13;;;6.88;76.45
71107;BME280;58763;47.982;11.516;2024-03-23T05:21:43;93294.69;;;6.84;76.81
71107;BME280;58763;47.982;11.516;2024-03-23T05:24:09;93295.50;;;6.84;76.99
71107;BME280;58763;47.982;11.516;2024-03-23T05:26:35;93306.75;;;6.86;76.55
71107;BME280;58763;47.982;11.516;2024-03-23T05:29:02;93303.91;;;6.78;76.88
71107;BME280;58763;47.982;11.516;2024-03-23T05:31:29;93308.59;;;6.67;77.61
71107;BME280;58763;47.982;11.516;2024-03-23T05:33:55;93300.81;;;6.61;77.05
71107;BME280;58763;47.982;11.516;2024-03-23T05:36:21;93294.84;;;6.69;77.05
71107;BME280;58763;47.982;11.516;2024-03-23T05:38:48;93300.19;;;6.74;76.33
71107;BME280;58763;47.982;11.516;2024-03-23T05:41:13;93300.88;;;6.84;76.18
71107;BME280;58763;47.982;11.516;2024-03-23T05:43:39;93296.28;;;6.90;77.45
71107;BME280;58763;47.982;11.516;2024-03-23T05:46:05;93297.53;;;6.97;77.29
71107;BME280;58763;47.982;11.516;2024-03-23T05:48:31;93291.34;;;6.97;76.79
71107;BME280;58763;47.982;11.516;2024-03-23T05:50:57;93295.13;;;6.96;76.22
71107;BME280;58763;47.982;11.516;2024-03-23T05:53:23;93279.50;;;6.98;75.18
71107;BME280;58763;47.982;11.516;2024-03-23T05:55:50;93292.16;;;6.97;74.95
71107;BME280;58763;47.982;11.516;2024-03-23T05:58:17;93297.75;;;7.01;75.29
71107;BME280;58763;47.982;11.516;2024-03-23T06:00:44;93283.97;;;7.08;76.05
71107;BME280;58763;47.982;11.516;2024-03-23T06:03:10;93286.50;;;6.99;76.63
71107;BME280;58763;47.982;11.516;2024-03-23T06:05:36;93285.84;;;7.07;76.66
71107;BME280;58763;47.982;11.516;2024-03-23T06:08:02;93280.16;;;7.14;76.68
71107;BME280;58763;47.982;11.516;2024-03-23T06:10:28;93276.97;;;7.12;76.08
71107;BME280;58763;47.982;11.516;2024-03-23T06:12:54;93278.25;;;7.14;74.48
71107;BME280;58763;47.982;11.516;2024-03-23T06:15:20;93271.97;;;7.24;74.14
71107;BME280;58763;47.982;11.516;2024-03-23T06:17:45;93267.03;;;7.31;74.49
71107;BME280;58763;47.982;11.516;2024-03-23T06:20:11;93248.56;;;7.24;74.02
71107;BME280;58763;47.982;11.516;2024-03-23T06:22:38;93265.16;;;7.31;74.23
71107;BME280;58763;47.982;11.516;2024-03-23T06:25:04;93251.34;;;7.38;74.21
71107;BME280;58763;47.982;11.516;2024-03-23T06:27:30;93242.41;;;7.42;75.37
71107;BME280;58763;47.982;11.516;2024-03-23T06:29:58;93246.72;;;7.43;75.15
71107;BME280;58763;47.982;11.516;2024-03-23T06:32:23;93236.41;;;7.50;74.25
71107;BME280;58763;47.982;11.516;2024-03-23T06:34:49;93235.19;;;7.61;74.08
71107;BME280;58763;47.982;11.516;2024-03-23T06:37:14;93225.44;;;7.65;73.71
71107;BME280;58763;47.982;11.516;2024-03-23T06:39:40;93228.72;;;7.81;72.48
71107;BME280;58763;47.982;11.516;2024-03-23T06:42:08;93206.81;;;7.88;72.14
71107;BME280;58763;47.982;11.516;2024-03-23T06:44:34;93199.53;;;8.07;71.93
71107;BME280;58763;47.982;11.516;2024-03-23T06:46:59;93189.09;;;8.19;72.05
71107;BME280;58763;47.982;11.516;2024-03-23T06:49:25;93182.47;;;8.30;71.81
71107;BME280;58763;47.982;11.516;2024-03-23T06:51:50;93178.19;;;8.43;70.56
71107;BME280;58763;47.982;11.516;2024-03-23T06:54:17;93165.34;;;8.53;71.06
71107;BME280;58763;47.982;11.516;2024-03-23T06:56:44;93170.56;;;8.63;70.33
71107;BME280;58763;47.982;11.516;2024-03-23T06:59:10;93162.78;;;8.75;70.45
71107;BME280;58763;47.982;11.516;2024-03-23T07:01:35;93167.88;;;8.90;71.13
71107;BME280;58763;47.982;11.516;2024-03-23T07:04:01;93166.19;;;8.94;71.58
71107;BME280;58763;47.982;11.516;2024-03-23T07:06:28;93168.88;;;8.94;72.26
71107;BME280;58763;47.982;11.516;2024-03-23T07:08:53;93169.19;;;8.93;74.61
71107;BME280;58763;47.982;11.516;2024-03-23T07:11:20;93174.66;;;9.01;75.23
71107;BME280;58763;47.982;11.516;2024-03-23T07:13:46;93175.47;;;9.02;73.31
71107;BME280;58763;47.982;11.516;2024-03-23T07:16:16;93174.16;;;9.13;70.81
71107;BME280;58763;47.982;11.516;2024-03-23T07:18:41;93174.75;;;9.24;69.88
71107;BME280;58763;47.982;11.516;2024-03-23T07:21:07;93177.13;;;9.39;70.60
71107;BME280;58763;47.982;11.516;2024-03-23T07:23:33;93165.00;;;9.50;70.64
71107;BME280;58763;47.982;11.516;2024-03-23T07:26:04;93169.50;;;9.68;70.66
71107;BME280;58763;47.982;11.516;2024-03-23T07:28:33;93175.66;;;9.82;71.14
71107;BME280;58763;47.982;11.516;2024-03-23T07:31:07;93173.97;;;9.95;70.61
71107;BME280;58763;47.982;11.516;2024-03-23T07:33:39;93178.66;;;10.03;69.78
71107;BME280;58763;47.982;11.516;2024-03-23T07:36:06;93190.84;;;10.14;68.24
71107;BME280;58763;47.982;11.516;2024-03-23T07:38:32;93196.31;;;10.22;68.61
71107;BME280;58763;47.982;11.516;2024-03-23T07:41:18;93202.53;;;10.45;68.40
71107;BME280;58763;47.982;11.516;2024-03-23T07:43:45;93212.34;;;10.41;67.95
71107;BME280;58763;47.982;11.516;2024-03-23T07:46:11;93207.38;;;10.57;63.32
71107;BME280;58763;47.982;11.516;2024-03-23T07:48:40;93225.72;;;10.68;64.63
71107;BME280;58763;47.982;11.516;2024-03-23T07:51:17;93241.44;;;10.88;65.49
71107;BME280;58763;47.982;11.516;2024-03-23T07:53:44;93239.91;;;11.04;65.08
71107;BME280;58763;47.982;11.516;2024-03-23T07:56:15;93269.53;;;11.40;65.91
71107;BME280;58763;47.982;11.516;2024-03-23T07:58:41;93277.53;;;11.45;67.21
71107;BME280;58763;47.982;11.516;2024-03-23T08:01:12;93296.25;;;11.33;68.46
71107;BME280;58763;47.982;11.516;2024-03-23T08:03:39;93293.91;;;11.09;69.71
71107;BME280;58763;47.982;11.516;2024-03-23T08:06:18;93323.00;;;10.82;70.97
71107;BME280;58763;47.982;11.516;2024-03-23T08:08:49;93320.69;;;10.53;74.20
71107;BME280;58763;47.982;11.516;2024-03-23T08:11:16;93318.75;;;10.45;74.63
71107;BME280;58763;47.982;11.516;2024-03-23T08:13:42;93323.19;;;10.27;76.34
71107;BME280;58763;47.982;11.516;2024-03-23T08:16:10;93323.72;;;10.02;78.45
71107;BME280;58763;47.982;11.516;2024-03-23T08:18:36;93333.22;;;9.86;78.43
71107;BME280;58763;47.982;11.516;2024-03-23T08:21:04;93337.03;;;9.71;79.96
71107;BME280;58763;47.982;11.516;2024-03-23T08:23:31;93338.13;;;9.57;81.37
71107;BME280;58763;47.982;11.516;2024-03-23T08:26:01;93348.00;;;9.48;82.27
71107;BME280;58763;47.982;11.516;2024-03-23T08:28:27;93364.19;;;9.34;83.56
71107;BME280;58763;47.982;11.516;2024-03-23T08:30:54;93347.41;;;9.37;85.70
71107;BME280;58763;47.982;11.516;2024-03-23T08:33:21;93357.91;;;9.39;86.39
71107;BME280;58763;47.982;11.516;2024-03-23T08:35:54;93362.22;;;9.40;86.60
71107;BME280;58763;47.982;11.516;2024-03-23T08:38:22;93363.59;;;9.37;86.58
71107;BME280;58763;47.982;11.516;2024-03-23T08:40:56;93374.56;;;9.27;86.19
71107;BME280;58763;47.982;11.516;2024-03-23T08:43:22;93364.59;;;9.28;87.37
71107;BME280;58763;47.982;11.516;2024-03-23T08:45:48;93374.09;;;8.93;88.56
71107;BME280;58763;47.982;11.516;2024-03-23T08:48:14;93388.16;;;8.71;91.08
71107;BME280;58763;47.982;11.516;2024-03-23T08:50:40;93401.88;;;8.56;92.37
71107;BME280;58763;47.982;11.516;2024-03-23T08:53:05;93406.53;;;8.51;94.30
71107;BME280;58763;47.982;11.516;2024-03-23T08:55:31;93430.34;;;8.44;94.52
71107;BME280;58763;47.982;11.516;2024-03-23T08:57:56;93425.09;;;8.33;96.87
71107;BME280;58763;47.982;11.516;2024-03-23T09:00:22;93448.19;;;8.16;99.05
71107;BME280;58763;47.982;11.516;2024-03-23T09:02:48;93470.13;;;8.04;100.00
71107;BME280;58763;47.982;11.516;2024-03-23T09:05:13;93473.91;;;8.03;99.12
71107;BME280;58763;47.982;11.516;2024-03-23T09:07:39;93471.53;;;7.73;100.00
71107;BME280;58763;47.982;11.516;2024-03-23T09:10:06;93466.09;;;7.54;100.00
71107;BME280;58763;47.982;11.516;2024-03-23T09:12:31;93421.06;;;7.36;100.00
71107;BME280;58763;47.982;11.516;2024-03-23T09:14:57;93434.34;;;7.28;100.00
71107;BME280;58763;47.982;11.516;2024-03-23T09:17:22;93447.03;;;7.22;100.00
71107;BME280;58763;47.982;11.516;2024-03-23T09:19:48;93457.47;;;7.24;100.00
71107;BME280;58763;47.982;11.516;2024-03-23T09:22:14;93462.16;;;7.13;100.00
71107;BME280;58763;47.982;11.516;2024-03-23T09:24:40;93476.78;;;7.02;100.00
71107;BME280;58763;47.982;11.516;2024-03-23T09:27:06;93478.41;;;6.98;100.00
71107;BME280;58763;47.982;11.516;2024-03-23T09:29:31;93487.00;;;7.00;100.00
71107;BME280;58763;47.982;11.516;2024-03-23T09:31:57;93488.09;;;6.94;100.00
71107;BME280;58763;47.982;11.516;2024-03-23T09:34:23;93477.34;;;6.94;100.00
71107;BME280;58763;47.982;11.516;2024-03-23T09:36:51;93496.16;;;6.94;100.00
71107;BME280;58763;47.982;11.516;2024-03-23T09:39:18;93500.16;;;7.02;100.00
71107;BME280;58763;47.982;11.516;2024-03-23T09:41:43;93509.59;;;6.94;100.00
71107;BME280;58763;47.982;11.516;2024-03-23T09:44:09;93509.97;;;6.77;100.00
71107;BME280;58763;47.982;11.516;2024-03-23T09:46:35;93518.47;;;6.51;100.00
71107;BME280;58763;47.982;11.516;2024-03-23T09:49:02;93530.09;;;6.36;100.00
71107;BME280;58763;47.982;11.516;2024-03-23T09:51:30;93527.75;;;6.14;99.67
71107;BME280;58763;47.982;11.516;2024-03-23T09:53:57;93536.41;;;5.91;99.38
71107;BME280;58763;47.982;11.516;2024-03-23T09:56:22;93549.28;;;5.74;99.79
71107;BME280;58763;47.982;11.516;2024-03-23T09:58:49;93554.91;;;5.78;100.00
71107;BME280;58763;47.982;11.516;2024-03-23T10:01:15;93544.47;;;5.71;100.00
71107;BME280;58763;47.982;11.516;2024-03-23T10:03:45;93553.59;;;5.70;100.00
71107;BME280;58763;47.982;11.516;2024-03-23T10:06:11;93555.22;;;5.66;100.00
71107;BME280;58763;47.982;11.516;2024-03-23T10:08:37;93573.44;;;5.69;100.00
71107;BME280;58763;47.982;11.516;2024-03-23T10:11:16;93548.50;;;5.64;100.00
71107;BME280;58763;47.982;11.516;2024-03-23T10:13:43;93566.22;;;5.59;100.00
71107;BME280;58763;47.982;11.516;2024-03-23T10:16:09;93566.22;;;5.65;100.00
71107;BME280;58763;47.982;11.516;2024-03-23T10:18:39;93566.22;;;5.65;100.00
71107;BME280;58763;47.982;11.516;2024-03-23T10:21:11;93566.47;;;5.58;100.00
71107;BME280;58763;47.982;11.516;2024-03-23T10:23:41;93573.19;;;5.50;100.00
71107;BME280;58763;47.982;11.516;2024-03-23T10:26:21;93565.44;;;5.39;100.00
71107;BME280;58763;47.982;11.516;2024-03-23T10:29:01;93583.38;;;5.48;100.00
71107;BME280;58763;47.982;11.516;2024-03-23T10:31:31;93573.97;;;5.56;100.00
71107;BME280;58763;47.982;11.516;2024-03-23T10:33:57;93576.94;;;5.54;100.00
71107;BME280;58763;47.982;11.516;2024-03-23T10:36:24;93580.97;;;5.57;100.00
71107;BME280;58763;47.982;11.516;2024-03-23T10:38:51;93579.63;;;5.59;100.00
71107;BME280;58763;47.982;11.516;2024-03-23T10:41:18;93587.91;;;5.58;100.00
71107;BME280;58763;47.982;11.516;2024-03-23T10:43:48;93591.16;;;5.50;100.00
71107;BME280;58763;47.982;11.516;2024-03-23T10:46:14;93600.78;;;5.51;100.00
71107;BME280;58763;47.982;11.516;2024-03-23T10:48:40;93612.63;;;5.55;100.00
71107;BME280;58763;47.982;11.516;2024-03-23T10:51:09;93613.66;;;5.54;100.00
71107;BME280;58763;47.982;11.516;2024-03-23T10:53:35;93619.31;;;5.52;100.00
71107;BME280;58763;47.982;11.516;2024-03-23T10:56:02;93630.84;;;5.43;100.00
71107;BME280;58763;47.982;11.516;2024-03-23T10:58:49;93636.72;;;5.45;100.00
71107;BME280;58763;47.982;11.516;2024-03-23T11:01:15;93644.78;;;5.50;100.00
71107;BME280;58763;47.982;11.516;2024-03-23T11:03:45;93636.75;;;5.55;100.00
71107;BME280;58763;47.982;11.516;2024-03-23T11:06:38;93649.34;;;5.59;100.00
71107;BME280;58763;47.982;11.516;2024-03-23T11:14:52;93650.97;;;5.50;95.75
71107;BME280;58763;47.982;11.516;2024-03-23T11:17:20;93653.88;;;5.49;96.15
71107;BME280;58763;47.982;11.516;2024-03-23T11:19:57;93661.13;;;5.58;97.81
71107;BME280;58763;47.982;11.516;2024-03-23T11:22:47;93651.22;;;5.59;95.79
71107;BME280;58763;47.982;11.516;2024-03-23T11:25:23;93656.06;;;5.62;95.57
71107;BME280;58763;47.982;11.516;2024-03-23T11:28:10;93652.56;;;5.72;94.03
71107;BME280;58763;47.982;11.516;2024-03-23T11:30:37;93667.88;;;5.71;94.63
71107;BME280;58763;47.982;11.516;2024-03-23T11:33:06;93661.41;;;5.72;93.39
71107;BME280;58763;47.982;11.516;2024-03-23T11:35:37;93655.78;;;5.64;87.78
71107;BME280;58763;47.982;11.516;2024-03-23T11:40:32;93645.31;;;5.57;86.60
71107;BME280;58763;47.982;11.516;2024-03-23T11:43:03;93639.69;;;5.53;88.49
71107;BME280;58763;47.982;11.516;2024-03-23T11:45:37;93634.06;;;5.55;90.39
71107;BME280;58763;47.982;11.516;2024-03-23T11:48:17;93624.69;;;5.57;88.97
71107;BME280;58763;47.982;11.516;2024-03-23T11:50:50;93631.63;;;5.53;88.67
71107;BME280;58763;47.982;11.516;2024-03-23T11:53:19;93621.19;;;5.47;86.97
71107;BME280;58763;47.982;11.516;2024-03-23T11:55:56;93633.78;;;5.51;87.48
71107;BME280;58763;47.982;11.516;2024-03-23T11:58:24;93640.50;;;5.54;87.12
71107;BME280;58763;47.982;11.516;2024-03-23T12:00:56;93656.03;;;5.47;86.92
71107;BME280;58763;47.982;11.516;2024-03-23T12:03:21;93643.16;;;5.49;89.06
71107;BME280;58763;47.982;11.516;2024-03-23T12:05:51;93645.31;;;5.57;88.28
71107;BME280;58763;47.982;11.516;2024-03-23T12:10:50;93641.03;;;5.61;90.92
71107;BME280;58763;47.982;11.516;2024-03-23T12:13:20;93610.47;;;5.57;89.26
71107;BME280;58763;47.982;11.516;2024-03-23T12:15:50;93622.78;;;5.73;90.94
71107;BME280;58763;47.982;11.516;2024-03-23T12:18:16;93633.53;;;5.73;88.73
71107;BME280;58763;47.982;11.516;2024-03-23T12:20:42;93626.53;;;5.82;89.36
71107;BME280;58763;47.982;11.516;2024-03-23T12:23:10;93631.94;;;5.97;88.85
71107;BME280;58763;47.982;11.516;2024-03-23T12:25:40;93625.22;;;5.90;89.20
71107;BME280;58763;47.982;11.516;2024-03-23T12:28:06;93622.78;;;5.83;87.96
71107;BME280;58763;47.982;11.516;2024-03-23T12:30:36;93601.63;;;5.92;88.89
71107;BME280;58763;47.982;11.516;2024-03-23T12:33:04;93606.16;;;6.01;85.93
71107;BME280;58763;47.982;11.516;2024-03-23T12:35:29;93597.28;;;6.06;88.21
71107;BME280;58763;47.982;11.516;2024-03-23T12:37:56;93610.44;;;6.02;85.82
71107;BME280;58763;47.982;11.516;2024-03-23T12:40:22;93626.28;;;5.99;85.35
71107;BME280;58763;47.982;11.516;2024-03-23T12:42:47;93624.41;;;5.94;86.96
71107;BME280;58763;47.982;11.516;2024-03-23T12:45:13;93628.97;;;6.04;87.94
71107;BME280;58763;47.982;11.516;2024-03-23T12:47:39;93629.78;;;5.89;86.32
71107;BME280;58763;47.982;11.516;2024-03-23T12:50:05;93623.03;;;5.82;88.40
71107;BME280;58763;47.982;11.516;2024-03-23T12:52:32;93616.38;;;5.84;89.19
71107;BME280;58763;47.982;11.516;2024-03-23T12:54:58;93613.41;;;5.81;87.25
71107;BME280;58763;47.982;11.516;2024-03-23T12:57:25;93621.72;;;5.89;87.99
71107;BME280;58763;47.982;11.516;2024-03-23T12:59:52;93626.84;;;5.86;90.01
71107;BME280;58763;47.982;11.516;2024-03-23T13:02:19;93621.72;;;5.89;85.46
71107;BME280;58763;47.982;11.516;2024-03-23T13:04:46;93618.53;;;5.87;84.77
71107;BME280;58763;47.982;11.516;2024-03-23T13:07:12;93612.88;;;5.94;86.88
71107;BME280;58763;47.982;11.516;2024-03-23T13:09:38;93623.59;;;5.94;83.93
71107;BME280;58763;47.982;11.516;2024-03-23T13:12:03;93614.75;;;5.98;85.17
71107;BME280;58763;47.982;11.516;2024-03-23T13:14:29;93614.22;;;6.01;84.82
71107;BME280;58763;47.982;11.516;2024-03-23T13:16:55;93615.28;;;6.05;84.79
71107;BME280;58763;47.982;11.516;2024-03-23T13:19:20;93600.78;;;6.06;83.95
71107;BME280;58763;47.982;11.516;2024-03-23T13:21:50;93609.91;;;6.05;86.01
71107;BME280;58763;47.982;11.516;2024-03-23T13:24:16;93600.50;;;6.08;86.22
71107;BME280;58763;47.982;11.516;2024-03-23T13:26:41;93590.81;;;6.27;86.90
71107;BME280;58763;47.982;11.516;2024-03-23T13:29:07;93586.44;;;6.46;89.61
71107;BME280;58763;47.982;11.516;2024-03-23T13:31:33;93586.72;;;6.40;85.43
71107;BME280;58763;47.982;11.516;2024-03-23T13:33:59;93576.53;;;6.37;84.58
71107;BME280;58763;47.982;11.516;2024-03-23T13:36:25;93579.25;;;6.32;82.90
71107;BME280;58763;47.982;11.516;2024-03-23T13:38:50;93581.91;;;6.42;82.79
71107;BME280;58763;47.982;11.516;2024-03-23T13:41:16;93581.59;;;6.48;86.12
71107;BME280;58763;47.982;11.516;2024-03-23T13:43:42;93576.53;;;6.42;87.48
71107;BME280;58763;47.982;11.516;2024-03-23T13:46:07;93583.28;;;6.29;88.76
71107;BME280;58763;47.982;11.516;2024-03-23T13:48:33;93585.75;;;6.10;88.68
71107;BME280;58763;47.982;11.516;2024-03-23T13:51:04;93587.09;;;6.03;89.74
71107;BME280;58763;47.982;11.516;2024-03-23T13:53:30;93582.31;;;5.85;90.36
71107;BME280;58763;47.982;11.516;2024-03-23T13:55:58;93582.56;;;5.78;88.87
71107;BME280;58763;47.982;11.516;2024-03-23T13:58:24;93585.25;;;5.63;87.36
71107;BME280;58763;47.982;11.516;2024-03-23T14:00:53;93584.72;;;5.56;87.91